Time;durP1;ratioP1;P1;durP2;ratioP2;P2;SDS_P1;SDS_P2;PMS_P1;PMS_P2;Temp;Humidity;BMP_temperature;BMP_pressure;BME280_temperature;BME280_humidity;BME280_pressure;Samples;Min_cycle;Max_cycle;Signal;HPM_P1;HPM_P2
2021/07/20 00:03:20;;;;;;;;;;;17.40;99.90;;;16.38;85.04;95824.31;10267216;28;1726;-86
2021/07/20 00:08:23;;;;;;;;;;;17.30;99.90;;;16.29;84.03;95821.56;10251088;29;2486;-86
2021/07/20 00:13:26;;;;;;;;;;;17.30;99.90;;;16.33;83.63;95824.44;10261775;28;2323;-88
2021/07/20 00:18:29;;;;;;;;;;;17.30;99.90;;;16.25;82.93;95819.75;10233351;29;1876;-86
2021/07/20 00:23:32;;;;;;;;;;;17.20;99.90;;;16.27;81.92;95812.91;10256965;28;2371;-88
2021/07/20 00:28:35;;;;;;;;;;;17.20;99.90;;;16.34;82.04;95809.75;10255207;28;1980;-86
2021/07/20 00:33:38;;;;;;;;;;;17.20;99.90;;;16.21;82.82;95808.72;10266759;28;1250;-87
2021/07/20 00:38:40;;;;;;;;;;;17.20;99.90;;;16.26;82.99;95797.75;10245144;28;2297;-86
2021/07/20 00:43:43;;;;;;;;;;;17.20;99.90;;;16.24;84.21;95777.47;10245264;29;2356;-85
2021/07/20 00:48:46;;;;;;;;;;;17.20;99.90;;;16.15;85.18;95791.75;10249703;28;2343;-87
2021/07/20 00:53:50;;;;;;;;;;;17.10;99.90;;;15.98;87.17;95783.53;10235573;28;2406;-86
2021/07/20 00:58:53;;;;;;;;;;;17.00;99.90;;;16.04;87.79;95784.22;10249355;29;2054;-87
2021/07/20 01:03:56;;;;;;;;;;;17.00;99.90;;;15.83;89.95;95767.59;10241345;28;2241;-86
2021/07/20 01:08:59;;;;;;;;;;;16.90;99.90;;;15.97;88.68;95781.94;10257660;28;1989;-86
2021/07/20 01:14:03;;;;;;;;;;;16.90;99.90;;;15.97;89.20;95771.09;10281557;28;2252;-86
2021/07/20 01:19:06;;;;;;;;;;;16.90;99.90;;;16.06;88.58;95771.94;10291924;28;2336;-85
2021/07/20 01:24:09;;;;;;;;;;;17.00;99.90;;;16.24;87.34;95770.16;10274366;28;2110;-85
2021/07/20 01:29:11;;;;;;;;;;;17.10;99.90;;;16.25;86.46;95774.44;10255396;29;2539;-87
2021/07/20 01:34:14;;;;;;;;;;;17.20;99.90;;;16.17;87.18;95772.50;10251653;28;2329;-86
2021/07/20 01:39:17;;;;;;;;;;;17.20;99.90;;;15.99;87.82;95771.56;10241944;28;2358;-87
2021/07/20 01:44:19;;;;;;;;;;;17.10;99.90;;;16.01;88.33;95773.97;10287637;28;2281;-86
2021/07/20 01:49:22;;;;;;;;;;;17.00;99.90;;;15.99;88.25;95768.84;10294664;28;1891;-85
2021/07/20 01:54:25;;;;;;;;;;;17.00;99.90;;;16.07;88.30;95761.88;10310534;28;2348;-84
2021/07/20 01:59:28;;;;;;;;;;;17.00;99.90;;;16.08;88.12;95775.13;10285016;28;2210;-88
2021/07/20 02:08:23;;;;;;;;;;;17.00;99.90;;;15.95;88.78;95778.69;10275141;28;2125;-85
2021/07/20 02:10:16;;;;;;;;;;;17.00;99.90;;;15.84;89.88;95785.47;10283405;28;2732;-83
2021/07/20 02:15:18;;;;;;;;;;;16.90;99.90;;;15.60;91.97;95780.31;10272803;29;1974;-86
2021/07/20 02:20:21;;;;;;;;;;;16.70;99.90;;;15.65;91.87;95783.75;10269443;29;2438;-86
2021/07/20 02:25:24;;;;;;;;;;;16.70;99.90;;;15.64;91.89;95792.16;10260884;28;2238;-86
2021/07/20 02:30:27;;;;;;;;;;;16.60;99.90;;;15.47;92.59;95795.47;10249209;28;2173;-87
2021/07/20 02:35:30;;;;;;;;;;;16.60;99.90;;;15.41;93.54;95783.16;10251041;29;2486;-87
2021/07/20 02:40:33;;;;;;;;;;;16.50;99.90;;;15.23;95.09;95781.38;10263239;29;2343;-85
2021/07/20 02:45:36;;;;;;;;;;;16.40;99.90;;;15.14;95.82;95783.97;10276219;28;2351;-84
2021/07/20 02:50:39;;;;;;;;;;;16.30;99.90;;;15.07;97.41;95784.38;10253146;28;2352;-87
2021/07/20 02:55:41;;;;;;;;;;;16.20;99.90;;;15.06;97.93;95785.47;10271671;28;2157;-86
2021/07/20 03:00:44;;;;;;;;;;;16.10;99.90;;;15.06;98.32;95788.19;10259968;28;1931;-86
2021/07/20 03:05:47;;;;;;;;;;;16.10;99.90;;;14.97;98.81;95789.22;10259953;28;2514;-87
2021/07/20 03:10:54;;;;;;;;;;;16.00;99.90;;;15.11;98.48;95790.00;10259539;29;1971;-85
2021/07/20 03:15:57;;;;;;;;;;;16.10;99.90;;;15.03;98.46;95793.41;10256622;29;2125;-86
2021/07/20 03:21:00;;;;;;;;;;;16.10;99.90;;;14.90;98.92;95795.03;10261228;28;2418;-86
2021/07/20 03:26:03;;;;;;;;;;;16.00;99.90;;;15.08;98.61;95790.63;10261619;28;2522;-87
2021/07/20 03:31:05;;;;;;;;;;;16.00;99.90;;;15.23;97.58;95803.84;10263892;28;2448;-84
2021/07/20 03:36:08;;;;;;;;;;;16.10;99.90;;;15.45;96.39;95808.50;10247392;29;2546;-86
2021/07/20 03:41:18;;;;;;;;;;;16.20;99.90;;;15.50;95.63;95803.00;10270262;28;2033;-86
2021/07/20 03:46:21;;;;;;;;;;;16.30;99.90;;;15.58;95.87;95815.00;10279385;28;2438;-86
2021/07/20 03:51:24;;;;;;;;;;;16.40;99.90;;;15.56;96.62;95826.16;10247172;29;2168;-84
2021/07/20 03:56:27;;;;;;;;;;;16.40;99.90;;;15.60;95.76;95819.03;10251409;29;2121;-86
2021/07/20 04:01:29;;;;;;;;;;;16.50;99.90;;;15.64;95.71;95825.47;10258640;28;2604;-86
2021/07/20 04:06:33;;;;;;;;;;;16.50;99.90;;;15.65;95.29;95824.38;10254153;28;2606;-86
2021/07/20 04:11:36;;;;;;;;;;;16.50;99.90;;;15.77;94.44;95823.03;10256097;29;2546;-87
2021/07/20 04:16:45;;;;;;;;;;;16.50;99.90;;;15.81;92.99;95829.44;10266602;28;2524;-87
2021/07/20 04:21:48;;;;;;;;;;;16.70;99.90;;;15.95;90.66;95835.63;10259361;28;2565;-87
2021/07/20 04:26:53;;;;;;;;;;;16.80;99.90;;;16.15;91.56;95842.50;10266178;28;2624;-89
2021/07/20 04:31:56;;;;;;;;;;;17.00;99.90;;;15.98;92.56;95843.16;10246256;28;3013;-87
2021/07/20 04:37:00;;;;;;;;;;;17.00;99.90;;;15.87;94.23;95850.72;10259374;28;2536;-87
2021/07/20 04:42:03;;;;;;;;;;;16.80;99.90;;;16.03;91.80;95853.91;10264150;28;2530;-84
2021/07/20 04:47:06;;;;;;;;;;;16.80;99.90;;;15.79;90.66;95853.34;10280002;29;2403;-86
2021/07/20 04:52:09;;;;;;;;;;;16.80;99.90;;;15.92;88.25;95852.53;10263064;28;2154;-85
2021/07/20 04:57:12;;;;;;;;;;;16.70;99.90;;;16.04;86.55;95857.41;10255699;28;2609;-85
2021/07/20 05:02:16;;;;;;;;;;;16.80;99.90;;;16.70;82.12;95851.22;10253377;28;2563;-86
2021/07/20 05:07:19;;;;;;;;;;;17.20;99.90;;;16.78;78.69;95867.84;10270210;29;2631;-84
2021/07/20 05:12:22;;;;;;;;;;;17.60;99.90;;;16.94;74.91;95860.94;10272965;28;2486;-85
2021/07/20 05:17:25;;;;;;;;;;;17.70;99.90;;;17.51;71.57;95872.66;10298189;28;1805;-85
2021/07/20 05:22:28;;;;;;;;;;;18.00;99.90;;;17.38;70.77;95875.50;10293667;28;2149;-86
2021/07/20 05:27:31;;;;;;;;;;;18.30;99.90;;;17.54;69.38;95868.50;10272894;28;2591;-86
2021/07/20 05:32:34;;;;;;;;;;;18.20;99.90;;;17.62;69.48;95870.44;10262347;28;2596;-85
2021/07/20 05:37:37;;;;;;;;;;;18.40;99.90;;;17.83;67.50;95857.91;10255367;29;2365;-86
2021/07/20 05:42:40;;;;;;;;;;;18.50;99.90;;;18.05;66.61;95867.03;10264889;28;2571;-86
2021/07/20 05:47:43;;;;;;;;;;;18.70;99.90;;;18.14;65.91;95881.47;10276013;28;2010;-86
2021/07/20 05:52:46;;;;;;;;;;;18.80;99.90;;;18.44;66.01;95868.00;10264461;28;2559;-86
2021/07/20 05:57:49;;;;;;;;;;;19.00;99.90;;;18.34;65.82;95875.38;10240604;29;2163;-84
2021/07/20 06:02:51;;;;;;;;;;;19.20;99.90;;;18.81;65.89;95870.06;10264933;28;1998;-86
2021/07/20 06:07:55;;;;;;;;;;;19.20;99.90;;;19.05;63.54;95868.75;10262535;28;2476;-85
2021/07/20 06:12:59;;;;;;;;;;;19.50;99.90;;;18.92;61.77;95872.47;10264071;28;2183;-86
2021/07/20 06:18:02;;;;;;;;;;;19.80;99.90;;;19.17;60.52;95866.94;10289154;28;1831;-87
2021/07/20 06:23:05;;;;;;;;;;;19.90;99.90;;;19.24;63.47;95881.97;10309858;28;1836;-86
2021/07/20 06:28:07;;;;;;;;;;;19.80;99.90;;;19.32;60.30;95887.38;10274930;28;1915;-84
2021/07/20 06:33:11;;;;;;;;;;;20.10;99.90;;;19.88;59.17;95888.13;10244345;28;1987;-87
2021/07/20 06:38:14;;;;;;;;;;;20.40;99.90;;;19.73;59.87;95885.97;10251992;29;2127;-86
2021/07/20 06:43:17;;;;;;;;;;;20.40;99.90;;;20.12;59.88;95892.16;10267912;28;2467;-87
2021/07/20 06:48:20;;;;;;;;;;;20.60;99.90;;;20.09;57.98;95888.13;10264692;28;1980;-86
2021/07/20 06:53:23;;;;;;;;;;;20.80;99.90;;;20.25;57.26;95889.16;10264902;28;2302;-87
2021/07/20 06:58:27;;;;;;;;;;;20.90;99.90;;;20.91;55.75;95893.13;10250863;28;2524;-85
2021/07/20 07:03:30;;;;;;;;;;;21.20;99.90;;;20.44;56.82;95896.88;10260044;28;1738;-85
2021/07/20 07:08:34;;;;;;;;;;;21.30;99.90;;;20.72;56.10;95893.63;10260707;28;2907;-86
2021/07/20 07:13:45;;;;;;;;;;;21.20;99.90;;;20.90;55.60;95889.59;10258863;28;2272;-86
2021/07/20 07:18:49;;;;;;;;;;;21.40;99.90;;;21.16;54.25;95892.03;10261609;28;2968;-87
2021/07/20 07:23:52;;;;;;;;;;;21.70;99.90;;;21.16;54.03;95896.72;10270767;28;3191;-87
2021/07/20 07:28:55;;;;;;;;;;;21.80;99.90;;;20.87;54.50;95895.75;10270584;29;2127;-87
2021/07/20 07:33:58;;;;;;;;;;;21.70;99.90;;;21.12;55.26;95906.72;10273296;28;2365;-87
2021/07/20 07:39:02;;;;;;;;;;;21.70;99.90;;;21.10;53.91;95895.34;10273040;28;2706;-87
2021/07/20 07:44:05;;;;;;;;;;;22.10;99.90;;;21.60;51.38;95892.38;10249711;29;2387;-86
2021/07/20 07:49:08;;;;;;;;;;;22.10;99.90;;;21.30;51.68;95900.75;10254131;29;2258;-86
2021/07/20 07:54:11;;;;;;;;;;;22.20;99.90;;;21.37;51.02;95891.19;10238706;28;2296;-84
2021/07/20 07:59:14;;;;;;;;;;;22.30;99.90;;;21.71;51.13;95895.47;10256478;28;2291;-85
2021/07/20 08:04:18;;;;;;;;;;;22.40;99.90;;;22.39;50.65;95890.97;10255598;28;2640;-84
2021/07/20 08:09:21;;;;;;;;;;;22.60;99.90;;;21.90;47.73;95894.88;10261766;28;1908;-86
2021/07/20 08:14:24;;;;;;;;;;;22.70;99.90;;;22.25;47.77;95900.69;10254828;28;2699;-88
2021/07/20 08:19:31;;;;;;;;;;;22.80;99.90;;;22.08;47.82;95899.78;10242987;28;1952;-88
2021/07/20 08:24:35;;;;;;;;;;;22.90;99.90;;;22.06;47.36;95904.78;10244283;29;2105;-87
2021/07/20 08:29:37;;;;;;;;;;;22.80;99.90;;;21.97;47.68;95903.31;10248281;28;2252;-87
2021/07/20 08:34:40;;;;;;;;;;;22.90;99.90;;;22.27;47.42;95898.41;10233993;28;2427;-86
2021/07/20 08:40:03;;;;;;;;;;;23.00;99.90;;;22.95;46.30;95900.38;10245064;29;2605;-85
2021/07/20 08:45:06;;;;;;;;;;;23.30;99.90;;;22.43;44.93;95904.75;10255319;28;2234;-85
2021/07/20 08:50:09;;;;;;;;;;;23.60;99.90;;;22.67;44.18;95904.69;10260157;28;1922;-86
2021/07/20 08:55:12;;;;;;;;;;;23.40;99.90;;;22.61;45.51;95908.81;10261987;28;2404;-87
2021/07/20 09:00:15;;;;;;;;;;;23.50;99.90;;;22.64;42.70;95910.84;10274951;29;2072;-86
2021/07/20 09:05:18;;;;;;;;;;;23.40;99.90;;;23.00;43.40;95909.13;10280687;29;1906;-85
2021/07/20 09:10:21;;;;;;;;;;;23.60;99.90;;;22.37;46.34;95906.91;10272554;28;2878;-86
2021/07/20 09:15:25;;;;;;;;;;;23.40;99.90;;;22.93;44.71;95906.19;10254610;28;2374;-86
2021/07/20 09:20:28;;;;;;;;;;;23.40;99.90;;;23.18;43.45;95907.69;10252906;28;2335;-87
2021/07/20 09:25:31;;;;;;;;;;;23.60;99.90;;;22.94;45.01;95905.06;10251777;28;2328;-87
2021/07/20 09:30:34;;;;;;;;;;;23.70;99.90;;;22.76;44.65;95911.94;10262050;28;2295;-86
2021/07/20 09:35:36;;;;;;;;;;;23.50;99.90;;;23.48;43.71;95904.53;10260805;28;2457;-86
2021/07/20 09:40:39;;;;;;;;;;;23.90;99.90;;;23.07;45.44;95912.06;10248132;29;2269;-87
2021/07/20 09:45:42;;;;;;;;;;;23.90;99.90;;;22.82;47.19;95905.88;10279373;28;2425;-86
2021/07/20 09:50:46;;;;;;;;;;;23.80;99.90;;;22.71;47.95;95909.44;10252782;28;2303;-85
2021/07/20 09:55:49;;;;;;;;;;;23.70;99.90;;;22.69;47.52;95907.06;10263591;28;2162;-88
2021/07/20 10:00:52;;;;;;;;;;;23.70;99.90;;;22.87;46.84;95913.88;10269690;28;2890;-86
2021/07/20 10:06:00;;;;;;;;;;;23.60;99.90;;;22.82;46.16;95899.59;10273547;28;2311;-86
2021/07/20 10:11:04;;;;;;;;;;;23.80;99.90;;;22.90;46.22;95901.41;10292208;28;1964;-87
2021/07/20 10:16:08;;;;;;;;;;;24.00;99.90;;;22.70;45.62;95900.44;10264002;28;2252;-87
2021/07/20 10:21:14;;;;;;;;;;;24.00;99.90;;;22.23;46.86;95900.22;10262491;29;1982;-87
2021/07/20 10:26:17;;;;;;;;;;;23.50;99.90;;;23.36;44.29;95888.16;10256024;28;1852;-87
2021/07/20 10:31:20;;;;;;;;;;;23.60;99.90;;;24.04;41.77;95889.81;10252334;29;2056;-89
2021/07/20 10:36:25;;;;;;;;;;;24.70;99.90;;;24.88;41.55;95892.06;10260507;28;1742;-89
2021/07/20 10:41:28;;;;;;;;;;;25.30;99.90;;;24.37;42.26;95890.22;10259178;28;1795;-88
2021/07/20 10:46:30;;;;;;;;;;;25.20;99.90;;;25.50;40.10;95890.06;10294088;28;2207;-87
2021/07/20 10:51:34;;;;;;;;;;;25.70;99.90;;;26.02;37.18;95886.63;10277193;28;1973;-88
2021/07/20 10:56:40;;;;;;;;;;;26.70;99.90;;;25.43;38.91;95884.44;10248692;28;1753;-87
2021/07/20 11:01:43;;;;;;;;;;;27.60;99.90;;;24.65;40.75;95884.53;10247568;28;2365;-86
2021/07/20 11:06:47;;;;;;;;;;;26.20;99.90;;;25.21;40.00;95878.56;10283342;28;2041;-88
2021/07/20 11:11:50;;;;;;;;;;;26.10;99.90;;;25.98;39.46;95885.00;10299171;28;1895;-89
2021/07/20 11:16:52;;;;;;;;;;;27.30;99.90;;;25.42;38.91;95888.34;10288272;28;1598;-89
2021/07/20 11:21:55;;;;;;;;;;;27.30;99.60;;;25.57;39.53;95870.91;10293551;28;1726;-89
2021/07/20 11:27:05;;;;;;;;;;;27.60;98.50;;;26.56;38.59;95865.34;10322792;28;1963;-88
2021/07/20 11:32:40;;;;;;;;;;;28.20;99.20;;;26.74;37.06;95862.81;10298060;28;2233;-86
2021/07/20 11:37:42;;;;;;;;;;;29.10;94.70;;;26.52;35.79;95859.00;10282850;28;2351;-85
2021/07/20 11:42:46;;;;;;;;;;;28.00;92.80;;;25.08;40.12;95863.41;10296007;28;2359;-83
2021/07/20 11:47:49;;;;;;;;;;;27.10;94.70;;;24.16;42.22;95860.28;10285886;28;1912;-86
2021/07/20 11:52:54;;;;;;;;;;;25.80;96.90;;;23.78;42.53;95858.25;10284837;28;2294;-84
2021/07/20 11:57:57;;;;;;;;;;;25.10;98.50;;;25.00;40.88;95856.13;10251365;29;2369;-86
2021/07/20 12:03:00;;;;;;;;;;;25.30;99.00;;;25.60;40.02;95842.66;10245323;28;2277;-85
2021/07/20 12:08:03;;;;;;;;;;;26.10;99.00;;;25.27;39.70;95844.09;10251471;29;2274;-86
2021/07/20 12:13:06;;;;;;;;;;;26.40;96.90;;;25.75;39.62;95836.25;10249045;28;2314;-87
2021/07/20 12:18:09;;;;;;;;;;;26.50;96.80;;;25.22;39.86;95844.38;10259512;28;2400;-86
2021/07/20 12:23:13;;;;;;;;;;;26.30;95.80;;;25.36;39.89;95845.78;10261177;28;2182;-86
2021/07/20 12:28:16;;;;;;;;;;;26.10;95.80;;;26.08;37.83;95848.53;10288173;28;2034;-84
2021/07/20 12:33:18;;;;;;;;;;;26.50;94.90;;;25.47;39.46;95846.78;10279724;28;2233;-84
2021/07/20 12:38:21;;;;;;;;;;;26.60;94.30;;;25.14;41.62;95845.44;10272071;28;2361;-85
2021/07/20 12:43:24;;;;;;;;;;;26.20;96.50;;;25.37;41.00;95844.63;10269297;28;2334;-86
2021/07/20 12:48:27;;;;;;;;;;;26.20;96.70;;;25.21;39.74;95842.81;10263472;28;1994;-85
2021/07/20 12:53:29;;;;;;;;;;;26.20;94.80;;;25.52;39.12;95840.97;10249608;28;2369;-84
2021/07/20 12:58:32;;;;;;;;;;;26.20;94.80;;;25.41;39.41;95840.00;10258831;28;2374;-85
2021/07/20 13:03:35;;;;;;;;;;;26.30;94.10;;;26.17;38.57;95840.00;10245202;28;2352;-87
2021/07/20 13:08:38;;;;;;;;;;;26.50;93.60;;;26.39;38.16;95834.41;10248047;28;2756;-86
2021/07/20 13:13:41;;;;;;;;;;;27.00;93.60;;;25.15;40.80;95838.75;10267266;28;2264;-82
2021/07/20 13:18:46;;;;;;;;;;;26.70;93.10;;;24.99;40.81;95838.03;10229188;29;2274;-83
2021/07/20 13:23:54;;;;;;;;;;;26.00;94.20;;;25.13;41.37;95829.28;10255114;29;2113;-83
2021/07/20 13:28:57;;;;;;;;;;;26.20;94.80;;;25.29;38.75;95829.97;10246451;28;2304;-83
2021/07/20 13:34:00;;;;;;;;;;;26.20;92.50;;;25.06;39.76;95827.19;10240628;28;2320;-83
2021/07/20 13:39:02;;;;;;;;;;;26.10;92.20;;;25.14;39.52;95831.69;10250114;29;2246;-81
2021/07/20 13:44:05;;;;;;;;;;;26.20;92.20;;;24.93;41.44;95831.25;10249965;28;2317;-84
2021/07/20 13:49:08;;;;;;;;;;;26.00;93.80;;;25.00;41.07;95839.63;10300573;28;2499;-83
2021/07/20 13:54:11;;;;;;;;;;;25.90;93.60;;;24.65;40.91;95837.00;10258774;28;2249;-85
2021/07/20 13:59:14;;;;;;;;;;;25.80;92.60;;;24.91;40.82;95831.63;10255803;28;2416;-83
2021/07/20 14:04:18;;;;;;;;;;;25.90;92.20;;;24.83;40.05;95829.91;10242188;28;2425;-84
2021/07/20 14:09:20;;;;;;;;;;;26.00;92.00;;;25.04;39.54;95833.06;10243430;28;2332;-84
2021/07/20 14:14:35;;;;;;;;;;;25.90;91.00;;;25.44;39.48;95828.25;10223735;28;1097664;-85
2021/07/20 14:19:37;;;;;;;;;;;26.10;92.20;;;24.95;41.12;95831.69;10261137;29;2450;-84
2021/07/20 14:24:41;;;;;;;;;;;26.00;92.90;;;24.97;40.35;95832.91;10247980;28;2383;-84
2021/07/20 14:29:44;;;;;;;;;;;26.10;91.90;;;24.98;40.23;95820.75;10255728;28;2335;-83
2021/07/20 14:34:47;;;;;;;;;;;25.80;91.50;;;25.27;40.11;95824.84;10269046;28;2687;-83
2021/07/20 14:39:50;;;;;;;;;;;26.00;92.50;;;24.87;40.05;95832.69;10265429;28;2251;-85
2021/07/20 14:44:53;;;;;;;;;;;26.00;90.80;;;24.80;40.30;95831.41;10284278;28;1435;-84
2021/07/20 14:49:56;;;;;;;;;;;25.80;90.90;;;24.79;39.62;95829.03;10281145;29;2173;-83
2021/07/20 14:54:59;;;;;;;;;;;25.80;90.00;;;24.98;39.62;95819.94;10291672;28;2713;-84
2021/07/20 15:00:03;;;;;;;;;;;25.80;90.40;;;25.24;38.49;95820.03;10299261;28;1975;-83
2021/07/20 15:05:06;;;;;;;;;;;26.00;89.90;;;24.87;39.32;95830.75;10302503;28;2382;-88
2021/07/20 15:10:09;;;;;;;;;;;26.10;89.20;;;25.21;39.45;95823.53;10291867;28;2213;-87
2021/07/20 15:15:11;;;;;;;;;;;26.00;89.90;;;25.83;36.70;95810.44;10279329;28;2295;-87
2021/07/20 15:20:14;;;;;;;;;;;26.40;87.40;;;25.20;38.23;95824.72;10276893;28;1860;-84
2021/07/20 15:25:17;;;;;;;;;;;26.30;87.20;;;25.64;37.23;95832.53;10269152;28;1974;-85
2021/07/20 15:30:20;;;;;;;;;;;26.30;87.30;;;25.20;38.70;95832.97;10304895;28;2185;-87
2021/07/20 15:35:23;;;;;;;;;;;26.50;86.90;;;25.34;38.89;95827.69;10286924;28;2177;-81
2021/07/20 15:40:25;;;;;;;;;;;26.20;88.00;;;25.33;38.07;95831.63;10283773;29;2128;-83
2021/07/20 15:45:29;;;;;;;;;;;26.20;87.20;;;25.75;38.10;95833.50;10260775;28;2339;-83
2021/07/20 15:50:33;;;;;;;;;;;26.50;87.40;;;25.53;37.64;95826.03;10241601;29;2362;-83
2021/07/20 15:55:36;;;;;;;;;;;26.30;86.90;;;24.75;38.82;95831.72;10266051;28;2541;-84
2021/07/20 16:00:39;;;;;;;;;;;26.00;86.80;;;25.01;38.60;95831.03;10263969;28;2272;-82
2021/07/20 16:05:42;;;;;;;;;;;25.80;87.10;;;25.20;38.18;95826.66;10262780;28;2418;-83
2021/07/20 16:10:45;;;;;;;;;;;26.00;87.20;;;24.57;39.54;95836.06;10263198;28;2236;-83
2021/07/20 16:15:52;;;;;;;;;;;25.70;86.90;;;24.29;40.65;95836.22;10278460;28;2439;-82
2021/07/20 16:20:56;;;;;;;;;;;25.30;88.70;;;24.11;40.39;95838.63;10251233;29;2208;-83
2021/07/20 16:26:03;;;;;;;;;;;25.10;88.60;;;23.59;41.45;95844.41;10267733;28;2248;-82
2021/07/20 16:31:06;;;;;;;;;;;24.80;88.90;;;23.70;40.98;95837.28;10260083;29;2316;-84
2021/07/20 16:36:09;;;;;;;;;;;24.70;88.90;;;23.44;40.55;95846.03;10284565;28;2188;-83
2021/07/20 16:41:13;;;;;;;;;;;24.60;88.00;;;23.48;41.38;95841.44;10257938;29;2348;-84
2021/07/20 16:46:18;;;;;;;;;;;24.30;89.10;;;23.49;40.81;95840.28;10260920;28;2351;-83
2021/07/20 16:51:21;;;;;;;;;;;24.30;89.10;;;23.16;42.09;95846.91;10272351;28;2315;-85
2021/07/20 16:56:25;;;;;;;;;;;24.10;89.70;;;22.99;42.00;95849.97;10273497;28;2335;-78
2021/07/20 17:01:28;;;;;;;;;;;24.00;89.80;;;23.01;43.22;95847.66;10279748;29;2268;-84
2021/07/20 17:06:31;;;;;;;;;;;23.90;91.10;;;23.00;42.92;95846.09;10251178;29;2557;-83
2021/07/20 17:11:34;;;;;;;;;;;23.90;91.20;;;22.80;43.21;95847.09;10252539;28;2312;-82
2021/07/20 17:16:40;;;;;;;;;;;23.70;90.90;;;22.75;42.52;95855.56;10262478;29;2393;-82
2021/07/20 17:21:43;;;;;;;;;;;23.70;90.70;;;22.47;43.47;95859.09;10266653;28;2216;-83
2021/07/20 17:26:48;;;;;;;;;;;23.50;91.00;;;22.42;43.69;95858.53;10286225;28;2332;-83
2021/07/20 17:31:50;;;;;;;;;;;23.30;91.40;;;22.42;43.72;95867.56;10293497;28;2230;-81
2021/07/20 17:37:03;;;;;;;;;;;23.30;91.60;;;22.47;43.85;95867.31;10290591;28;2375;-81
2021/07/20 17:42:12;;;;;;;;;;;23.30;92.00;;;22.29;43.91;95874.22;10267115;28;1955;-82
2021/07/20 17:47:16;;;;;;;;;;;23.30;91.40;;;;;;10284179;28;2274;-82
2021/07/20 17:52:18;;;;;;;;;;;23.10;91.10;;;22.05;44.26;95875.81;10277182;28;2233;-81
2021/07/20 17:57:21;;;;;;;;;;;23.00;91.90;;;21.96;44.76;95874.34;10255101;29;2235;-82
2021/07/20 18:02:24;;;;;;;;;;;22.90;92.40;;;21.83;45.45;95887.25;10257817;28;2391;-79
2021/07/20 18:07:29;;;;;;;;;;;22.80;93.10;;;21.76;45.84;95898.78;10260585;28;2358;-81
2021/07/20 18:12:32;;;;;;;;;;;22.70;93.90;;;21.71;46.75;95895.47;10249429;28;2359;-82
2021/07/20 18:17:35;;;;;;;;;;;22.60;94.70;;;21.62;46.88;95892.03;10257865;28;2322;-82
2021/07/20 18:22:37;;;;;;;;;;;22.60;95.10;;;21.45;47.51;95896.59;10263331;28;2414;-83
2021/07/20 18:27:41;;;;;;;;;;;22.50;95.60;;;21.39;47.52;95905.34;10273805;29;2267;-83
2021/07/20 18:32:44;;;;;;;;;;;22.40;95.90;;;21.23;48.19;95903.22;10282266;28;2405;-83
2021/07/20 18:37:47;;;;;;;;;;;22.20;96.40;;;21.15;48.64;95908.78;10288384;28;2367;-81
2021/07/20 18:42:49;;;;;;;;;;;22.10;97.10;;;21.03;48.80;95910.34;10288232;28;2263;-82
2021/07/20 18:47:52;;;;;;;;;;;22.00;97.10;;;20.89;49.23;95907.13;10277591;29;2328;-82
2021/07/20 18:52:55;;;;;;;;;;;21.90;97.70;;;20.74;49.04;95913.19;10260962;28;2506;-81
2021/07/20 18:57:57;;;;;;;;;;;21.80;97.60;;;20.49;49.75;95926.75;10247254;29;2526;-82
2021/07/20 19:03:00;;;;;;;;;;;21.70;97.90;;;20.40;49.84;95936.09;10253267;28;2384;-82
2021/07/20 19:08:04;;;;;;;;;;;21.50;98.10;;;20.24;50.47;95931.25;10252901;29;2367;-82
2021/07/20 19:13:08;;;;;;;;;;;21.40;98.60;;;20.20;50.50;95943.94;10234017;28;2641;-82
2021/07/20 19:18:10;;;;;;;;;;;21.20;98.90;;;20.03;51.18;95948.69;10264196;28;2553;-82
2021/07/20 19:23:13;;;;;;;;;;;21.10;99.30;;;19.93;51.99;95950.69;10264713;28;2417;-83
2021/07/20 19:28:16;;;;;;;;;;;21.00;99.90;;;19.80;52.63;95956.38;10243315;29;2442;-82
2021/07/20 19:33:19;;;;;;;;;;;20.90;99.90;;;19.69;52.64;95961.38;10243564;28;2731;-83
2021/07/20 19:38:22;;;;;;;;;;;20.80;99.90;;;19.52;53.04;95966.84;10245155;29;2390;-82
2021/07/20 19:43:25;;;;;;;;;;;20.70;99.90;;;19.47;53.62;95980.66;10232348;28;2702;-83
2021/07/20 19:48:28;;;;;;;;;;;20.60;99.90;;;19.34;54.25;95971.56;10243262;29;2360;-83
2021/07/20 19:53:31;;;;;;;;;;;20.50;99.90;;;19.29;54.20;95986.16;10267638;28;2369;-81
2021/07/20 19:58:33;;;;;;;;;;;20.40;99.90;;;19.19;54.31;95981.06;10252251;28;2644;-83
2021/07/20 20:03:36;;;;;;;;;;;20.30;99.90;;;19.19;54.31;95986.50;10256434;28;2539;-84
2021/07/20 20:08:39;;;;;;;;;;;20.30;99.90;;;18.99;54.83;95992.63;10271021;29;2304;-84
2021/07/20 20:13:43;;;;;;;;;;;20.20;99.90;;;18.99;55.04;95993.41;10229840;28;2366;-82
2021/07/20 20:18:46;;;;;;;;;;;20.10;99.90;;;18.94;55.41;95999.03;10254259;29;2366;-84
2021/07/20 20:23:51;;;;;;;;;;;20.00;99.90;;;18.90;56.02;96001.59;10256725;28;2858;-81
2021/07/20 20:28:54;;;;;;;;;;;20.00;99.90;;;18.73;56.30;96007.03;10230688;29;2717;-84
2021/07/20 20:33:57;;;;;;;;;;;19.90;99.90;;;18.72;57.09;96004.66;10275156;28;2530;-84
2021/07/20 20:39:00;;;;;;;;;;;19.80;99.90;;;18.64;57.25;96003.50;10284490;28;2365;-84
2021/07/20 20:44:05;;;;;;;;;;;19.80;99.90;;;18.58;57.69;96010.22;10267653;28;2364;-83
2021/07/20 20:49:07;;;;;;;;;;;19.70;99.90;;;18.48;58.28;96005.88;10263663;28;2811;-82
2021/07/20 20:54:10;;;;;;;;;;;19.60;99.90;;;18.46;58.41;96010.03;10255466;28;2418;-84
2021/07/20 20:59:14;;;;;;;;;;;19.50;99.90;;;18.29;58.92;96014.31;10248095;28;2500;-83
2021/07/20 21:04:17;;;;;;;;;;;19.50;99.90;;;18.32;59.45;96012.88;10284895;28;2310;-84
2021/07/20 21:09:20;;;;;;;;;;;19.40;99.90;;;18.17;60.02;96024.22;10283896;28;2320;-83
2021/07/20 21:14:22;;;;;;;;;;;19.40;99.90;;;18.09;60.61;96025.78;10283408;28;2454;-83
2021/07/20 21:19:26;;;;;;;;;;;19.20;99.90;;;18.03;61.19;96024.31;10266168;28;2427;-82
2021/07/20 21:24:29;;;;;;;;;;;19.10;99.90;;;17.93;61.88;96027.31;10273329;28;2267;-83
2021/07/20 21:29:31;;;;;;;;;;;19.00;99.90;;;17.88;62.21;96030.16;10270838;28;2481;-83
2021/07/20 21:34:35;;;;;;;;;;;19.00;99.90;;;17.76;63.26;96030.78;10250844;28;2406;-83
2021/07/20 21:39:37;;;;;;;;;;;18.90;99.90;;;17.58;63.75;96038.00;10267457;28;2308;-83
2021/07/20 21:44:40;;;;;;;;;;;18.80;99.90;;;17.55;64.43;96030.47;10277141;28;2338;-83
2021/07/20 21:49:44;;;;;;;;;;;18.70;99.90;;;17.55;64.83;96033.19;10257354;28;2426;-84
2021/07/20 21:54:47;;;;;;;;;;;18.60;99.90;;;17.44;65.84;96040.00;10288061;28;2668;-84
2021/07/20 21:59:50;;;;;;;;;;;18.50;99.90;;;17.27;66.86;96049.66;10288652;28;2725;-82
2021/07/20 22:04:53;;;;;;;;;;;18.40;99.90;;;17.10;67.56;96048.72;10273979;28;2433;-83
2021/07/20 22:09:56;;;;;;;;;;;18.30;99.90;;;17.13;67.55;96042.69;10259232;28;2340;-83
2021/07/20 22:14:59;;;;;;;;;;;18.20;99.90;;;17.00;68.50;96053.28;10283001;28;2581;-82
2021/07/20 22:20:21;;;;;;;;;;;18.20;99.90;;;16.91;68.41;96046.97;10282539;28;2633;-83
2021/07/20 22:25:24;;;;;;;;;;;18.00;99.90;;;16.77;69.29;96053.56;10265001;29;2203;-82
2021/07/20 22:30:27;;;;;;;;;;;17.90;99.90;;;16.71;69.30;96050.97;10267609;29;2306;-81
2021/07/20 22:35:30;;;;;;;;;;;17.90;99.90;;;16.59;69.94;96055.28;10268530;28;2256;-84
2021/07/20 22:40:32;;;;;;;;;;;17.80;99.90;;;16.47;70.63;96058.50;10266392;29;2072;-83
2021/07/20 22:45:35;;;;;;;;;;;17.60;99.90;;;16.40;71.26;96053.50;10268250;28;2340;-83
2021/07/20 22:50:38;;;;;;;;;;;17.50;99.90;;;16.34;71.73;96059.34;10267307;29;2367;-83
2021/07/20 22:55:41;;;;;;;;;;;17.50;99.90;;;16.38;71.55;96054.91;10269868;28;2367;-79
2021/07/20 23:00:43;;;;;;;;;;;17.40;99.90;;;16.32;71.41;96062.34;10288744;28;1872;-83
2021/07/20 23:05:46;;;;;;;;;;;17.40;99.90;;;16.25;71.20;96053.03;10273102;28;2508;-82
2021/07/20 23:10:49;;;;;;;;;;;17.40;99.90;;;16.19;71.68;96058.53;10253628;28;2422;-83
2021/07/20 23:15:53;;;;;;;;;;;17.30;99.90;;;16.07;71.81;96050.13;10262038;28;2352;-84